createdAt,value
2019-01-15T00:00:09.733Z,9.93
2019-01-15T00:02:38.485Z,9.30
2019-01-15T00:05:07.304Z,11.20
2019-01-15T00:07:36.411Z,13.23
2019-01-15T00:10:07.765Z,11.23
2019-01-15T00:12:36.957Z,9.50
2019-01-15T00:15:10.349Z,7.43
2019-01-15T00:17:39.105Z,7.50
2019-01-15T00:20:12.992Z,8.67
2019-01-15T00:22:42.140Z,12.63
2019-01-15T00:25:11.093Z,11.50
2019-01-15T00:27:39.771Z,9.73
2019-01-15T00:30:14.444Z,6.97
2019-01-15T00:32:43.201Z,6.30
2019-01-15T00:35:12.499Z,9.37
2019-01-15T00:37:41.198Z,10.10
2019-01-15T00:40:12.723Z,15.57
2019-01-15T00:42:41.804Z,7.63
2019-01-15T00:45:11.552Z,7.70
2019-01-15T00:47:40.751Z,15.63
2019-01-15T00:50:15.491Z,8.17
2019-01-15T00:52:44.334Z,10.93
2019-01-15T00:55:13.498Z,9.03
2019-01-15T00:57:42.265Z,10.93
2019-01-15T01:00:16.750Z,7.73
2019-01-15T01:02:45.485Z,8.87
2019-01-15T01:05:15.121Z,17.00
2019-01-15T01:07:43.992Z,17.00
2019-01-15T01:10:15.078Z,8.80
2019-01-15T01:12:44.273Z,11.00
2019-01-15T01:15:15.059Z,10.80
2019-01-15T01:17:43.822Z,11.10
2019-01-15T01:20:15.810Z,7.90
2019-01-15T01:22:44.628Z,13.93
2019-01-15T01:25:14.314Z,8.10
2019-01-15T01:27:42.981Z,10.03
2019-01-15T01:30:19.769Z,14.30
2019-01-15T01:32:48.524Z,11.63
2019-01-15T01:35:17.286Z,14.43
2019-01-15T01:37:45.947Z,11.17
2019-01-15T01:40:16.781Z,9.33
2019-01-15T01:42:45.479Z,11.03
2019-01-15T01:45:15.667Z,10.37
2019-01-15T01:47:44.366Z,10.90
2019-01-15T01:50:14.112Z,8.67
2019-01-15T01:52:43.207Z,10.40
2019-01-15T01:55:13.676Z,19.10
2019-01-15T01:57:42.487Z,12.80
2019-01-15T02:00:14.514Z,12.00
2019-01-15T02:02:43.296Z,10.50
2019-01-15T02:05:12.067Z,16.97
2019-01-15T02:07:40.775Z,21.47
2019-01-15T02:10:14.802Z,12.20
2019-01-15T02:12:43.453Z,15.30
2019-01-15T02:15:14.782Z,15.87
2019-01-15T02:17:43.598Z,9.63
2019-01-15T02:20:15.445Z,18.07
2019-01-15T02:22:44.348Z,26.90
2019-01-15T02:25:13.417Z,14.23
2019-01-15T02:27:44.200Z,21.60
2019-01-15T02:30:15.751Z,16.07
2019-01-15T02:32:44.455Z,14.17
2019-01-15T02:35:13.206Z,12.57
2019-01-15T02:37:42.015Z,14.63
2019-01-15T02:40:13.301Z,14.07
2019-01-15T02:42:46.634Z,16.40
2019-01-15T02:45:15.012Z,16.90
2019-01-15T02:47:44.103Z,16.77
2019-01-15T02:50:14.737Z,12.73
2019-01-15T02:52:43.867Z,15.53
2019-01-15T02:55:13.031Z,14.57
2019-01-15T02:57:41.825Z,14.40
2019-01-15T03:00:16.887Z,13.23
2019-01-15T03:02:45.648Z,13.10
2019-01-15T03:05:14.680Z,18.80
2019-01-15T03:07:43.389Z,18.87
2019-01-15T03:10:15.465Z,11.70
2019-01-15T03:12:54.443Z,18.13
2019-01-15T03:15:16.721Z,12.13
2019-01-15T03:17:45.841Z,22.00
2019-01-15T03:20:16.302Z,13.70
2019-01-15T03:22:45.098Z,14.47
2019-01-15T03:25:14.020Z,18.03
2019-01-15T03:27:42.806Z,14.53
2019-01-15T03:30:22.370Z,13.63
2019-01-15T03:32:51.031Z,14.73
2019-01-15T03:35:20.121Z,16.40
2019-01-15T03:37:48.949Z,17.77
2019-01-15T03:40:22.623Z,12.60
2019-01-15T03:42:52.013Z,22.03
2019-01-15T03:45:20.789Z,19.97
2019-01-15T03:47:49.474Z,12.67
2019-01-15T03:50:18.598Z,11.40
2019-01-15T03:52:47.381Z,12.43
2019-01-15T03:55:17.264Z,13.53
2019-01-15T03:57:47.202Z,11.53
2019-01-15T04:00:18.569Z,12.23
2019-01-15T04:02:47.472Z,14.37
2019-01-15T04:05:17.092Z,13.33
2019-01-15T04:07:47.418Z,17.33
2019-01-15T04:10:16.104Z,16.03
2019-01-15T04:12:44.950Z,15.13
2019-01-15T04:15:14.247Z,10.93
2019-01-15T04:17:42.960Z,12.83
2019-01-15T04:20:14.605Z,17.57
2019-01-15T04:22:43.915Z,10.30
2019-01-15T04:25:13.686Z,14.20
2019-01-15T04:27:42.506Z,10.53
2019-01-15T04:30:14.212Z,12.60
2019-01-15T04:32:43.028Z,14.40
2019-01-15T04:35:11.783Z,14.23
2019-01-15T04:37:40.722Z,12.77
2019-01-15T04:40:12.657Z,14.27
2019-01-15T04:42:41.857Z,15.40
2019-01-15T04:45:15.804Z,14.47
2019-01-15T04:47:44.589Z,29.53
2019-01-15T04:50:14.702Z,14.67
2019-01-15T04:52:44.624Z,12.13
2019-01-15T04:55:13.973Z,14.90
2019-01-15T04:57:42.715Z,15.00
2019-01-15T05:00:17.553Z,13.97
2019-01-15T05:02:46.745Z,14.80
2019-01-15T05:05:16.302Z,19.77
2019-01-15T05:07:45.131Z,16.60
2019-01-15T05:10:16.084Z,17.10
2019-01-15T05:12:44.801Z,16.53
2019-01-15T05:15:15.805Z,21.33
2019-01-15T05:17:45.159Z,23.60
2019-01-15T05:20:16.367Z,14.93
2019-01-15T05:22:45.143Z,15.40
2019-01-15T05:25:16.863Z,23.53
2019-01-15T05:27:45.618Z,18.87
2019-01-15T05:30:20.222Z,20.57
2019-01-15T05:32:49.024Z,19.03
2019-01-15T05:35:17.820Z,20.33
2019-01-15T05:37:46.566Z,17.90
2019-01-15T05:40:16.193Z,20.03
2019-01-15T05:42:44.965Z,22.23
2019-01-15T05:45:18.188Z,26.80
2019-01-15T05:47:47.427Z,19.97
2019-01-15T05:50:17.856Z,23.53
2019-01-15T05:52:46.665Z,22.97
2019-01-15T05:55:15.723Z,22.60
2019-01-15T05:57:44.893Z,22.00
2019-01-15T06:00:16.080Z,21.53
2019-01-15T06:02:44.847Z,24.80
2019-01-15T06:05:14.216Z,22.80
2019-01-15T06:07:43.126Z,20.37
2019-01-15T06:10:15.605Z,21.20
2019-01-15T06:12:44.387Z,19.70
2019-01-15T06:15:14.766Z,19.17
2019-01-15T06:17:43.594Z,21.97
2019-01-15T06:20:18.011Z,23.83
2019-01-15T06:22:47.363Z,21.90
2019-01-15T06:25:16.611Z,25.67
2019-01-15T06:27:45.427Z,31.43
2019-01-15T06:30:21.273Z,20.67
2019-01-15T06:32:49.971Z,20.60
2019-01-15T06:35:18.831Z,22.27
2019-01-15T06:37:47.626Z,19.87
2019-01-15T06:40:17.785Z,17.67
2019-01-15T06:42:46.592Z,23.40
2019-01-15T06:45:21.196Z,22.80
2019-01-15T06:47:49.997Z,23.10
2019-01-15T06:50:18.767Z,22.27
2019-01-15T06:52:47.578Z,19.83
2019-01-15T06:55:21.438Z,22.13
2019-01-15T06:57:50.357Z,29.40
2019-01-15T07:00:30.224Z,19.50
2019-01-15T07:02:59.700Z,22.70
2019-01-15T07:05:28.857Z,28.17
2019-01-15T07:07:58.073Z,23.97
2019-01-15T07:10:30.043Z,26.60
2019-01-15T07:12:58.810Z,23.97
2019-01-15T07:15:27.516Z,26.43
2019-01-15T07:17:56.336Z,22.90
2019-01-15T07:20:25.081Z,26.57
2019-01-15T07:22:54.190Z,25.10
2019-01-15T07:25:24.922Z,29.83
2019-01-15T07:27:53.887Z,29.93
2019-01-15T07:30:25.837Z,27.93
2019-01-15T07:32:55.470Z,27.90
2019-01-15T07:35:24.610Z,29.93
2019-01-15T07:37:53.305Z,29.27
2019-01-15T07:40:22.426Z,32.60
2019-01-15T07:42:51.569Z,32.90
2019-01-15T07:45:20.734Z,40.33
2019-01-15T07:47:49.841Z,29.87
2019-01-15T07:50:21.031Z,34.13
2019-01-15T07:52:49.874Z,33.67
2019-01-15T07:55:19.977Z,35.10
2019-01-15T07:57:48.664Z,36.50
2019-01-15T08:00:19.374Z,37.97
2019-01-15T08:02:48.845Z,34.87
2019-01-15T08:05:19.826Z,32.60
2019-01-15T08:07:48.580Z,41.03
2019-01-15T08:10:18.162Z,37.87
2019-01-15T08:12:47.169Z,38.93
2019-01-15T08:15:27.154Z,37.10
2019-01-15T08:17:55.971Z,31.93
2019-01-15T08:20:24.745Z,33.67
2019-01-15T08:22:53.860Z,34.83
2019-01-15T08:25:23.010Z,28.37
2019-01-15T08:27:51.782Z,33.23
2019-01-15T08:30:29.678Z,28.40
2019-01-15T08:32:58.449Z,24.20
2019-01-15T08:35:27.090Z,29.20
2019-01-15T08:37:55.764Z,34.10
2019-01-15T08:40:25.142Z,33.33
2019-01-15T08:42:53.861Z,21.30
2019-01-15T08:45:22.668Z,33.43
2019-01-15T08:47:55.487Z,29.00
2019-01-15T08:50:32.193Z,30.00
2019-01-15T08:53:00.895Z,31.13
2019-01-15T08:55:29.753Z,30.37
2019-01-15T08:57:58.958Z,34.30
2019-01-15T09:00:27.764Z,31.67
2019-01-15T09:02:56.681Z,34.50
2019-01-15T09:05:25.406Z,31.00
2019-01-15T09:07:54.157Z,35.00
2019-01-15T09:10:22.809Z,32.07
2019-01-15T09:12:51.638Z,41.77
2019-01-15T09:15:22.096Z,28.20
2019-01-15T09:17:50.969Z,30.43
2019-01-15T09:20:21.144Z,32.53
2019-01-15T09:22:50.264Z,28.30
2019-01-15T09:25:19.045Z,29.87
2019-01-15T09:27:48.395Z,36.07
2019-01-15T09:30:23.470Z,33.30
2019-01-15T09:32:52.368Z,36.37
2019-01-15T09:35:21.157Z,32.43
2019-01-15T09:37:50.824Z,34.13
2019-01-15T09:40:21.495Z,33.17
2019-01-15T09:42:50.273Z,34.30
2019-01-15T09:45:20.848Z,33.60
2019-01-15T09:47:53.997Z,35.70
2019-01-15T09:50:22.934Z,35.93
2019-01-15T09:52:51.791Z,36.23
2019-01-15T09:55:20.568Z,36.83
2019-01-15T09:57:49.371Z,35.87
2019-01-15T10:00:19.597Z,38.67
2019-01-15T10:02:48.908Z,32.20
2019-01-15T10:05:17.662Z,26.70
2019-01-15T10:07:46.462Z,35.13
2019-01-15T10:10:16.905Z,29.87
2019-01-15T10:12:45.744Z,28.27
2019-01-15T10:15:17.202Z,29.17
2019-01-15T10:17:46.302Z,31.33
2019-01-15T10:20:17.315Z,32.00
2019-01-15T10:22:46.370Z,28.83
2019-01-15T10:25:17.270Z,22.57
2019-01-15T10:27:47.670Z,24.60
2019-01-15T10:30:21.434Z,30.03
2019-01-15T10:32:56.470Z,31.53
2019-01-15T10:35:28.233Z,28.67
2019-01-15T10:37:57.304Z,26.57
2019-01-15T10:40:25.957Z,26.03
2019-01-15T10:42:55.187Z,27.87
2019-01-15T10:45:23.953Z,27.53
2019-01-15T10:47:52.646Z,32.00
2019-01-15T10:50:21.437Z,27.73
2019-01-15T10:52:50.225Z,37.27
2019-01-15T10:55:19.207Z,23.17
2019-01-15T10:57:47.770Z,27.43
2019-01-15T11:00:16.703Z,34.20
2019-01-15T11:02:45.536Z,29.37
2019-01-15T11:05:14.420Z,28.10
2019-01-15T11:07:43.188Z,30.53
2019-01-15T11:10:16.410Z,21.73
2019-01-15T11:12:45.039Z,22.13
2019-01-15T11:15:14.065Z,28.53
2019-01-15T11:17:43.136Z,28.97
2019-01-15T11:20:14.919Z,30.27
2019-01-15T11:22:44.069Z,23.70
2019-01-15T11:25:12.862Z,24.43
2019-01-15T11:27:41.665Z,32.80
2019-01-15T11:30:14.810Z,28.50
2019-01-15T11:32:43.556Z,29.97
2019-01-15T11:35:15.341Z,28.83
2019-01-15T11:37:44.097Z,27.20
2019-01-15T11:40:15.738Z,26.53
2019-01-15T11:42:44.953Z,26.90
2019-01-15T11:45:16.071Z,28.13
2019-01-15T11:47:44.880Z,29.20
2019-01-15T11:50:19.432Z,29.43
2019-01-15T11:52:48.258Z,28.50
2019-01-15T11:55:17.200Z,23.77
2019-01-15T11:57:46.281Z,23.43
2019-01-15T12:00:33.975Z,30.33
2019-01-15T12:03:07.414Z,28.40
2019-01-15T12:05:55.858Z,26.20
2019-01-15T12:08:35.326Z,22.53
2019-01-15T12:11:23.766Z,24.57
2019-01-15T12:13:56.990Z,22.73
2019-01-15T12:16:33.129Z,24.87
2019-01-15T12:19:06.162Z,19.77
2019-01-15T12:21:39.312Z,23.30
2019-01-15T12:24:27.608Z,24.03
2019-01-15T12:26:58.092Z,27.37
2019-01-15T12:29:28.515Z,21.97
2019-01-15T12:31:58.927Z,32.33
2019-01-15T12:34:41.191Z,26.30
2019-01-15T12:37:14.643Z,22.10
2019-01-15T12:39:54.012Z,22.47
2019-01-15T12:42:33.294Z,22.87
2019-01-15T12:45:21.903Z,21.47
2019-01-15T12:48:01.623Z,24.87
2019-01-15T12:50:37.894Z,20.10
2019-01-15T12:53:11.207Z,21.00
2019-01-15T12:55:58.396Z,26.17
2019-01-15T12:58:34.531Z,20.90
2019-01-15T13:01:07.537Z,21.93
2019-01-15T13:03:37.979Z,19.17
2019-01-15T13:06:20.171Z,14.60
2019-01-15T13:08:51.078Z,17.40
2019-01-15T13:11:21.822Z,18.07
2019-01-15T13:13:58.332Z,20.87
2019-01-15T13:16:37.675Z,17.40
2019-01-15T13:19:17.164Z,25.60
2019-01-15T13:22:02.197Z,17.37
2019-01-15T13:24:49.010Z,20.50
2019-01-15T13:27:34.822Z,19.60
2019-01-15T13:30:13.245Z,17.20
2019-01-15T13:32:55.432Z,14.50
2019-01-15T13:35:26.222Z,20.30
2019-01-15T13:38:02.434Z,13.47
2019-01-15T13:40:32.853Z,15.93
2019-01-15T13:43:06.419Z,18.40
2019-01-15T13:45:41.787Z,20.77
2019-01-15T13:48:25.416Z,12.10
2019-01-15T13:51:10.535Z,18.63
2019-01-15T13:53:41.272Z,17.37
2019-01-15T13:56:14.925Z,17.13
2019-01-15T13:59:03.120Z,18.93
2019-01-15T14:01:51.051Z,22.63
2019-01-15T14:04:37.940Z,14.40
2019-01-15T14:07:26.368Z,18.60
2019-01-15T14:10:08.393Z,16.40
2019-01-15T14:12:44.877Z,13.43
2019-01-15T14:15:21.755Z,15.97
2019-01-15T14:18:04.197Z,19.57
2019-01-15T14:20:52.278Z,14.53
2019-01-15T14:23:23.031Z,11.90
2019-01-15T14:25:53.421Z,20.23
2019-01-15T14:28:24.245Z,17.87
2019-01-15T14:31:03.384Z,12.57
2019-01-15T14:33:50.022Z,15.60
2019-01-15T14:36:37.115Z,14.80
2019-01-15T14:39:21.800Z,12.83
2019-01-15T14:42:10.319Z,16.27
2019-01-15T14:44:43.263Z,16.70
2019-01-15T14:47:14.128Z,16.03
2019-01-15T14:49:56.849Z,12.97
2019-01-15T14:52:30.281Z,14.10
2019-01-15T14:55:01.211Z,12.50
2019-01-15T14:57:31.994Z,13.87
2019-01-15T15:00:02.335Z,13.20
2019-01-15T15:02:35.507Z,9.47
2019-01-15T15:05:10.647Z,13.43
2019-01-15T15:07:46.693Z,16.50
2019-01-15T15:10:33.057Z,10.80
2019-01-15T15:13:03.953Z,10.70
2019-01-15T15:15:40.739Z,10.17
2019-01-15T15:18:20.131Z,8.83
2019-01-15T15:20:56.717Z,10.17
2019-01-15T15:23:29.624Z,8.40
2019-01-15T15:26:00.390Z,15.43
2019-01-15T15:28:48.960Z,17.50
2019-01-15T15:31:19.413Z,9.57
2019-01-15T15:33:52.928Z,11.90
2019-01-15T15:36:29.451Z,9.83
2019-01-15T15:39:11.655Z,20.03
2019-01-15T15:41:57.700Z,12.37
2019-01-15T15:44:31.126Z,7.33
2019-01-15T15:47:01.886Z,8.93
2019-01-15T15:49:40.939Z,10.73
2019-01-15T15:52:14.042Z,11.40
2019-01-15T15:55:01.013Z,12.67
2019-01-15T15:57:37.117Z,13.13
2019-01-15T16:00:16.067Z,9.77
2019-01-15T16:03:01.629Z,8.90
2019-01-15T16:05:37.602Z,10.60
2019-01-15T16:08:20.126Z,13.07
2019-01-15T16:11:06.821Z,18.73
2019-01-15T16:13:53.565Z,11.13
2019-01-15T16:16:35.816Z,10.37
2019-01-15T16:19:22.157Z,7.23
2019-01-15T16:22:08.644Z,8.37
2019-01-15T16:24:57.644Z,11.33
2019-01-15T16:27:44.053Z,11.40
2019-01-15T16:30:32.258Z,15.23
2019-01-15T16:33:18.744Z,11.90
2019-01-15T16:35:49.065Z,7.00
2019-01-15T16:38:19.990Z,9.70
2019-01-15T16:40:53.173Z,15.10
2019-01-15T16:43:24.107Z,9.90
2019-01-15T16:46:03.083Z,10.80
2019-01-15T16:48:51.309Z,11.97
2019-01-15T16:51:27.417Z,10.00
2019-01-15T16:54:00.663Z,6.80
2019-01-15T16:56:46.038Z,11.77
2019-01-15T16:59:29.045Z,17.07
2019-01-15T17:02:05.612Z,12.43
2019-01-15T17:04:38.787Z,10.83
2019-01-15T17:07:09.565Z,14.60
2019-01-15T17:09:56.635Z,10.53
2019-01-15T17:12:42.931Z,12.00
2019-01-15T17:15:27.877Z,6.73
2019-01-15T17:17:58.243Z,9.97
2019-01-15T17:20:28.688Z,9.10
2019-01-15T17:23:04.941Z,10.40
2019-01-15T17:25:44.025Z,8.63
2019-01-15T17:28:19.855Z,11.37
2019-01-15T17:30:56.024Z,12.07
2019-01-15T17:33:29.377Z,8.03
2019-01-15T17:36:05.785Z,10.10
2019-01-15T17:38:52.611Z,6.87
2019-01-15T17:41:26.562Z,7.33
2019-01-15T17:43:57.365Z,11.73
2019-01-15T17:46:27.763Z,12.70
2019-01-15T17:48:58.255Z,9.70
2019-01-15T17:51:44.928Z,10.67
2019-01-15T17:54:15.416Z,14.43
2019-01-15T17:56:51.985Z,13.30
2019-01-15T17:59:22.421Z,13.00
2019-01-15T18:01:58.482Z,10.10
2019-01-15T18:04:45.185Z,9.70
2019-01-15T18:07:18.649Z,12.33
2019-01-15T18:09:54.981Z,16.00
2019-01-15T18:12:25.549Z,12.93
2019-01-15T18:14:59.252Z,11.67
2019-01-15T18:17:32.934Z,16.83
2019-01-15T18:20:09.663Z,13.20
2019-01-15T18:22:56.376Z,13.23
2019-01-15T18:25:42.927Z,9.87
2019-01-15T18:28:30.029Z,12.50
2019-01-15T18:31:16.494Z,9.57
2019-01-15T18:33:49.752Z,9.00
2019-01-15T18:36:29.324Z,12.60
2019-01-15T18:39:02.535Z,14.60
2019-01-15T18:41:34.426Z,10.80
2019-01-15T18:44:20.436Z,14.27
2019-01-15T18:47:05.898Z,15.67
2019-01-15T18:49:54.216Z,14.67
2019-01-15T18:52:25.054Z,16.10
2019-01-15T18:54:58.057Z,13.13
2019-01-15T18:57:41.064Z,11.03
2019-01-15T19:00:13.652Z,13.20
2019-01-15T19:02:44.372Z,13.70
2019-01-15T19:05:15.260Z,15.17
2019-01-15T19:08:01.119Z,13.27
2019-01-15T19:10:49.581Z,12.10
2019-01-15T19:13:20.018Z,12.57
2019-01-15T19:16:06.386Z,17.00
2019-01-15T19:18:39.611Z,13.93
2019-01-15T19:21:12.692Z,13.90
2019-01-15T19:23:54.850Z,14.30
2019-01-15T19:26:25.798Z,18.17
2019-01-15T19:29:12.516Z,13.80
2019-01-15T19:31:55.402Z,16.53
2019-01-15T19:34:42.386Z,13.23
2019-01-15T19:37:15.554Z,12.73
2019-01-15T19:39:46.049Z,15.87
2019-01-15T19:42:16.964Z,12.77
2019-01-15T19:44:49.907Z,16.13
2019-01-15T19:47:35.488Z,14.17
2019-01-15T19:50:17.002Z,12.13
2019-01-15T19:52:56.759Z,14.70
2019-01-15T19:55:43.542Z,13.97
2019-01-15T19:58:16.575Z,18.40
2019-01-15T20:00:58.753Z,11.73
2019-01-15T20:03:35.325Z,18.67
2019-01-15T20:06:12.163Z,15.03
2019-01-15T20:08:54.542Z,15.27
2019-01-15T20:11:36.663Z,14.10
2019-01-15T20:14:23.218Z,18.60
2019-01-15T20:17:05.529Z,13.70
2019-01-15T20:19:48.434Z,15.60
2019-01-15T20:22:37.307Z,13.50
2019-01-15T20:25:13.708Z,14.60
2019-01-15T20:27:44.084Z,13.30
2019-01-15T20:30:17.509Z,16.10
2019-01-15T20:32:50.292Z,17.10
2019-01-15T20:35:23.534Z,16.40
2019-01-15T20:37:56.716Z,16.33
2019-01-15T20:40:39.084Z,17.67
2019-01-15T20:43:21.746Z,17.50
2019-01-15T20:46:08.479Z,15.13
2019-01-15T20:48:38.772Z,15.77
2019-01-15T20:51:12.533Z,13.30
2019-01-15T20:53:48.597Z,15.60
2019-01-15T20:56:35.440Z,16.60
2019-01-15T20:59:08.961Z,13.87
2019-01-15T21:01:42.123Z,18.20
2019-01-15T21:04:15.015Z,17.27
2019-01-15T21:06:45.418Z,18.10
2019-01-15T21:09:15.845Z,16.67
2019-01-15T21:11:52.305Z,14.13
2019-01-15T21:14:22.482Z,16.97
2019-01-15T21:16:58.352Z,13.87
2019-01-15T21:19:34.234Z,13.50
2019-01-15T21:22:13.680Z,18.30
2019-01-15T21:24:46.917Z,14.03
2019-01-15T21:27:17.312Z,27.73
2019-01-15T21:29:48.028Z,13.03
2019-01-15T21:32:20.862Z,17.93
2019-01-15T21:34:53.640Z,12.87
2019-01-15T21:37:33.359Z,13.10
2019-01-15T21:40:13.136Z,16.80
2019-01-15T21:43:01.666Z,15.43
2019-01-15T21:45:32.099Z,14.93
2019-01-15T21:48:20.279Z,17.70
2019-01-15T21:51:06.815Z,12.97
2019-01-15T21:53:46.061Z,16.30
2019-01-15T21:56:16.845Z,15.10
2019-01-15T21:58:47.152Z,15.73
2019-01-15T22:01:27.573Z,14.83
2019-01-15T22:04:13.413Z,13.00
2019-01-15T22:06:55.740Z,14.33
2019-01-15T22:09:31.853Z,19.73
2019-01-15T22:12:14.415Z,17.30
2019-01-15T22:14:45.171Z,10.67
2019-01-15T22:17:18.294Z,13.73
2019-01-15T22:20:04.905Z,12.60
2019-01-15T22:22:50.352Z,10.73
2019-01-15T22:25:35.472Z,15.10
2019-01-15T22:28:14.841Z,15.03
2019-01-15T22:31:01.525Z,20.03
2019-01-15T22:33:41.092Z,13.37
2019-01-15T22:36:14.122Z,15.63
2019-01-15T22:38:50.597Z,18.10
2019-01-15T22:41:37.275Z,16.60
2019-01-15T22:44:23.358Z,17.27
2019-01-15T22:46:53.766Z,17.20
2019-01-15T22:49:33.001Z,15.03
2019-01-15T22:52:12.305Z,23.33
2019-01-15T22:54:45.737Z,23.97
2019-01-15T22:57:25.276Z,16.30
2019-01-15T22:59:58.061Z,21.23
2019-01-15T23:02:40.881Z,19.07
2019-01-15T23:05:20.322Z,23.03
2019-01-15T23:08:07.234Z,16.57
2019-01-15T23:10:43.561Z,18.50
2019-01-15T23:13:13.894Z,19.93
2019-01-15T23:15:47.013Z,22.93
2019-01-15T23:18:17.283Z,19.60
2019-01-15T23:21:03.916Z,19.10
2019-01-15T23:23:36.972Z,21.60
2019-01-15T23:26:07.449Z,20.93
2019-01-15T23:28:47.218Z,19.37
2019-01-15T23:31:17.579Z,21.77
2019-01-15T23:33:50.689Z,21.30
2019-01-15T23:36:38.900Z,22.40
2019-01-15T23:39:09.786Z,21.47
2019-01-15T23:41:45.945Z,21.13
2019-01-15T23:44:16.371Z,22.90
2019-01-15T23:46:46.735Z,22.30
2019-01-15T23:49:19.957Z,23.00
2019-01-15T23:51:53.207Z,24.60
2019-01-15T23:54:26.965Z,23.00
2019-01-15T23:57:06.039Z,22.30
2019-01-15T23:59:44.839Z,21.80
